Terminal Aerodrome Forecast
Issued by NWS

Home | Current Version | Previous Version | Text Only | Print | Product List | Glossary On
Versions: 1 2 3 4 5 6 7 8 9 10 11 12 13 14 15 16 17 18 19 20 21 22 23 24 25 26
000
FTUS42 KCAE 292130 AAB
TAFOGB
TAF AMD
KOGB 292130Z 2922/3018 35012G18KT 4SM SHRA BR SCT008 OVC012
      TEMPO 2922/2924 3SM SHRA BKN008
     FM300300 36010G18KT 4SM -SHRA BR SCT007 OVC012
     FM300600 34010G18KT 3SM BR BKN007 OVC012
     FM301300 25008KT P6SM VCSH SCT007 OVC020=

USA.gov is the U.S. government's official web portal to all federal, state and local government web resources and services.